Time;durP1;ratioP1;P1;durP2;ratioP2;P2;SDS_P1;SDS_P2;PMS_P1;PMS_P2;Temp;Humidity;BMP_temperature;BMP_pressure;BME280_temperature;BME280_humidity;BME280_pressure;Samples;Min_cycle;Max_cycle;Signal;HPM_P1;HPM_P2
2021/05/09 00:00:39;;;;;;;32.80;20.85;;;307.50;1638.40;;;;;;4916133;29;20028;-68
2021/05/09 00:03:04;;;;;;;35.40;20.75;;;307.60;1638.40;;;;;;4914640;29;20439;-68
2021/05/09 00:05:31;;;;;;;38.10;21.95;;;307.60;1638.40;;;;;;4913712;29;20040;-68
2021/05/09 00:07:57;;;;;;;37.20;22.05;;;307.60;1638.40;;;;;;4913829;29;20055;-67
2021/05/09 00:10:23;;;;;;;36.20;22.45;;;307.50;1664.00;;;;;;4915243;29;20028;-67
2021/05/09 00:12:48;;;;;;;39.80;21.38;;;307.50;1689.60;;;;;;4918549;29;20036;-67
2021/05/09 00:15:20;;;;;;;37.28;21.35;;;307.50;1664.00;;;;;;4935129;29;20063;-67
2021/05/09 00:17:46;;;;;;;35.28;21.60;;;307.50;1664.00;;;;;;4925863;29;20035;-70
2021/05/09 00:20:12;;;;;;;32.92;20.33;;;307.40;1664.00;;;;;;4915814;29;20028;-67
2021/05/09 00:22:37;;;;;;;30.88;21.30;;;307.40;1664.00;;;;;;4916303;29;20025;-67
2021/05/09 00:25:05;;;;;;;38.45;20.98;;;307.40;1664.00;;;;;;4916262;29;20031;-67
2021/05/09 00:27:31;;;;;;;28.58;19.80;;;307.40;1664.00;;;;;;4899035;29;20115;-67
2021/05/09 00:29:56;;;;;;;36.53;21.00;;;307.40;1638.40;;;;;;4916565;29;20032;-67
2021/05/09 00:32:22;;;;;;;32.17;20.70;;;307.30;1664.00;;;;;;4916827;29;20382;-68
2021/05/09 00:34:48;;;;;;;32.50;20.58;;;307.30;1664.00;;;;;;4917920;29;20035;-68
2021/05/09 00:37:14;;;;;;;29.58;19.75;;;307.30;1638.40;;;;;;4915987;29;20043;-67
2021/05/09 00:39:39;;;;;;;34.72;21.42;;;307.30;1689.60;;;;;;4916276;29;20024;-67
2021/05/09 00:42:06;;;;;;;38.03;21.48;;;307.30;1664.00;;;;;;4915570;29;20028;-68
2021/05/09 00:44:33;;;;;;;35.03;20.88;;;307.30;1664.00;;;;;;4917060;29;20489;-68
2021/05/09 00:47:08;;;;;;;41.95;22.08;;;307.20;1664.00;;;;;;4917190;29;20040;-68
2021/05/09 00:49:35;;;;;;;31.88;20.15;;;307.20;1664.00;;;;;;4915355;29;20021;-65
2021/05/09 00:52:01;;;;;;;33.28;19.25;;;307.20;1689.60;;;;;;4922855;29;20043;-66
2021/05/09 00:54:28;;;;;;;35.95;20.25;;;307.20;1689.60;;;;;;4917824;29;20051;-67
2021/05/09 00:56:57;;;;;;;32.63;20.85;;;307.20;1689.60;;;;;;4917235;29;20415;-67
2021/05/09 00:59:25;;;;;;;36.75;19.65;;;307.20;1689.60;;;;;;4916435;29;20517;-67
2021/05/09 01:01:51;;;;;;;34.05;20.17;;;307.20;1689.60;;;;;;4917693;29;20493;-67
2021/05/09 01:04:17;;;;;;;33.83;19.40;;;307.20;1689.60;;;;;;4917235;29;20032;-67
2021/05/09 01:06:44;;;;;;;32.63;18.77;;;307.20;1689.60;;;;;;4917288;29;20047;-67
2021/05/09 01:09:11;;;;;;;27.50;19.17;;;307.20;1715.20;;;;;;4917701;29;20039;-67
2021/05/09 01:11:36;;;;;;;27.15;18.15;;;282.50;1664.00;;;;;;4917613;29;20035;-67
2021/05/09 01:14:04;;;;;;;34.33;19.23;;;282.50;1664.00;;;;;;4917572;29;20390;-67
2021/05/09 01:16:30;;;;;;;31.27;18.13;;;282.50;1689.60;;;;;;4917193;29;20040;-67
2021/05/09 01:18:56;;;;;;;28.23;18.15;;;282.50;1689.60;;;;;;4917262;29;20494;-68
2021/05/09 01:21:21;;;;;;;29.35;18.30;;;282.50;1689.60;;;;;;4917776;29;20039;-66
2021/05/09 01:23:47;;;;;;;29.90;20.00;;;282.40;1664.00;;;;;;4917718;29;20020;-68
2021/05/09 01:26:13;;;;;;;30.13;18.73;;;282.40;1689.60;;;;;;4917548;29;20462;-67
2021/05/09 01:28:39;;;;;;;27.08;18.25;;;282.40;1689.60;;;;;;4921384;29;20036;-67
2021/05/09 01:31:05;;;;;;;25.85;18.00;;;282.40;1689.60;;;;;;4921330;29;20109;-67
2021/05/09 01:33:31;;;;;;;26.23;17.40;;;282.30;1689.60;;;;;;4935958;29;20040;-67
2021/05/09 01:35:58;;;;;;;29.42;18.27;;;282.30;1689.60;;;;;;4920776;29;20051;-67
2021/05/09 01:38:24;;;;;;;25.77;17.50;;;282.30;1689.60;;;;;;4921644;29;20024;-67
2021/05/09 01:40:49;;;;;;;26.38;17.45;;;282.30;1689.60;;;;;;4921095;29;20032;-67
2021/05/09 01:43:15;;;;;;;32.53;18.80;;;282.30;1689.60;;;;;;4921332;29;20409;-68
2021/05/09 01:45:41;;;;;;;29.60;17.85;;;282.30;1689.60;;;;;;4930364;29;20107;-68
2021/05/09 01:48:07;;;;;;;30.50;16.75;;;282.30;1689.60;;;;;;4940294;29;20104;-68
2021/05/09 01:50:33;;;;;;;29.55;17.20;;;282.20;1715.20;;;;;;4940014;29;20541;-68
2021/05/09 01:53:02;;;;;;;29.23;17.83;;;282.20;1715.20;;;;;;4939931;29;20023;-68
2021/05/09 01:55:28;;;;;;;31.20;17.50;;;282.20;1689.60;;;;;;4939883;29;20023;-67
2021/05/09 01:57:53;;;;;;;29.88;17.42;;;282.20;1689.60;;;;;;4940010;29;20051;-67
2021/05/09 02:00:20;;;;;;;32.05;17.92;;;282.20;1689.60;;;;;;4939789;29;20471;-66
2021/05/09 02:02:47;;;;;;;26.63;16.58;;;282.20;1689.60;;;;;;4939744;29;20032;-66
2021/05/09 02:05:14;;;;;;;27.88;17.27;;;282.30;1689.60;;;;;;4940135;29;20043;-66
2021/05/09 02:07:39;;;;;;;24.70;15.90;;;282.20;1689.60;;;;;;4939877;29;20497;-66
2021/05/09 02:10:10;;;;;;;26.20;15.73;;;282.20;1689.60;;;;;;4939906;29;20036;-66
2021/05/09 02:12:36;;;;;;;34.10;17.95;;;282.20;1689.60;;;;;;4939502;29;20470;-66
2021/05/09 02:15:06;;;;;;;25.20;15.45;;;282.20;1689.60;;;;;;4939760;29;20090;-67
2021/05/09 02:17:31;;;;;;;29.10;15.05;;;282.20;1689.60;;;;;;4939421;29;20024;-67
2021/05/09 02:19:57;;;;;;;25.90;16.25;;;282.10;1689.60;;;;;;4922583;29;20039;-67
2021/05/09 02:22:23;;;;;;;26.33;15.68;;;282.10;1689.60;;;;;;4939428;29;20032;-68
2021/05/09 02:24:49;;;;;;;29.15;15.70;;;282.10;1689.60;;;;;;4939395;29;20030;-67
2021/05/09 02:27:14;;;;;;;27.67;15.35;;;282.10;1689.60;;;;;;4939451;29;20036;-68
2021/05/09 02:29:40;;;;;;;25.75;16.17;;;282.10;1689.60;;;;;;4939215;29;20032;-68
2021/05/09 02:32:07;;;;;;;31.25;16.65;;;282.10;1689.60;;;;;;4938983;29;20032;-67
2021/05/09 02:34:33;;;;;;;26.48;15.40;;;282.10;1689.60;;;;;;4939306;29;20023;-67
2021/05/09 02:36:59;;;;;;;29.90;15.93;;;282.10;1689.60;;;;;;4939312;29;20115;-66
2021/05/09 02:39:25;;;;;;;27.10;14.82;;;282.10;1689.60;;;;;;4939093;29;20048;-67
2021/05/09 02:41:50;;;;;;;26.85;15.52;;;282.10;1664.00;;;;;;4939096;29;20548;-66
2021/05/09 02:44:16;;;;;;;24.30;14.57;;;282.10;1664.00;;;;;;4939082;29;20027;-66
2021/05/09 02:46:42;;;;;;;32.53;16.63;;;282.10;1689.60;;;;;;4938518;29;20051;-68
2021/05/09 02:49:07;;;;;;;28.08;15.15;;;282.10;1689.60;;;;;;4938960;29;20055;-68
2021/05/09 02:51:33;;;;;;;22.85;13.65;;;282.10;1664.00;;;;;;4938606;29;20032;-65
2021/05/09 02:54:00;;;;;;;26.02;14.38;;;282.10;1664.00;;;;;;4938763;29;20032;-67
2021/05/09 02:56:26;;;;;;;26.38;14.80;;;282.10;1664.00;;;;;;4938940;29;20371;-67
2021/05/09 02:58:52;;;;;;;26.70;14.75;;;282.10;1664.00;;;;;;4938809;29;20028;-67
2021/05/09 03:01:17;;;;;;;27.90;15.13;;;282.00;1664.00;;;;;;4938583;29;20032;-67
2021/05/09 03:03:43;;;;;;;31.38;14.18;;;282.00;1664.00;;;;;;4938760;29;20027;-68
2021/05/09 03:06:09;;;;;;;28.38;15.13;;;282.00;1664.00;;;;;;4938775;29;20028;-66
2021/05/09 03:08:34;;;;;;;27.92;13.55;;;282.00;1664.00;;;;;;4938379;29;20098;-69
2021/05/09 03:11:01;;;;;;;25.60;14.38;;;282.00;1664.00;;;;;;4938629;29;20027;-67
2021/05/09 03:13:27;;;;;;;31.30;14.38;;;282.00;1664.00;;;;;;4938199;29;20106;-67
2021/05/09 03:15:55;;;;;;;32.28;14.50;;;282.00;1664.00;;;;;;4938301;29;20074;-66
2021/05/09 03:18:20;;;;;;;30.60;13.95;;;281.90;1664.00;;;;;;4938497;29;20032;-66
2021/05/09 03:20:46;;;;;;;31.02;13.32;;;281.90;1689.60;;;;;;4938659;29;20039;-66
2021/05/09 03:23:12;;;;;;;27.02;13.00;;;281.90;1689.60;;;;;;4938371;29;20024;-66
2021/05/09 03:25:38;;;;;;;36.10;13.65;;;281.90;1689.60;;;;;;4938531;29;20083;-66
2021/05/09 03:28:04;;;;;;;24.20;13.35;;;281.90;1689.60;;;;;;4938630;29;20031;-66
2021/05/09 03:30:29;;;;;;;24.05;13.55;;;281.90;1689.60;;;;;;4937838;29;20632;-69
2021/05/09 03:32:55;;;;;;;29.17;14.57;;;281.90;1689.60;;;;;;4938342;29;20023;-68
2021/05/09 03:35:24;;;;;;;31.35;14.60;;;281.90;1689.60;;;;;;4937904;29;20070;-68
2021/05/09 03:37:49;;;;;;;28.27;14.07;;;281.90;1664.00;;;;;;4938061;29;20028;-68
2021/05/09 03:40:16;;;;;;;26.67;13.73;;;281.90;1689.60;;;;;;4937767;29;20549;-68
2021/05/09 03:42:42;;;;;;;29.65;14.75;;;281.90;1689.60;;;;;;4937925;29;20148;-68
2021/05/09 03:45:08;;;;;;;31.20;14.07;;;281.90;1664.00;;;;;;4937888;29;20035;-68
2021/05/09 03:47:35;;;;;;;26.20;14.18;;;281.90;1664.00;;;;;;4937449;29;20032;-67
2021/05/09 03:50:02;;;;;;;30.35;15.70;;;281.90;1664.00;;;;;;4937321;29;20381;-68
2021/05/09 03:52:28;;;;;;;30.20;14.63;;;281.90;1664.00;;;;;;4937907;29;20028;-68
2021/05/09 03:54:53;;;;;;;26.98;14.65;;;281.90;1664.00;;;;;;4937731;29;20024;-67
2021/05/09 03:57:19;;;;;;;25.23;14.48;;;282.00;1664.00;;;;;;4937656;29;20070;-67
2021/05/09 03:59:45;;;;;;;25.85;14.27;;;281.90;1664.00;;;;;;4937778;29;20039;-68
2021/05/09 04:02:11;;;;;;;23.83;13.95;;;281.90;1664.00;;;;;;4937503;29;20023;-67
2021/05/09 04:04:37;;;;;;;31.83;15.88;;;282.00;1664.00;;;;;;4937733;29;20027;-67
2021/05/09 04:07:03;;;;;;;26.52;14.82;;;282.00;1689.60;;;;;;4937554;29;20034;-67
2021/05/09 04:09:28;;;;;;;23.80;13.65;;;282.00;1664.00;;;;;;4937221;29;20019;-67
2021/05/09 04:11:54;;;;;;;25.95;15.70;;;282.00;1664.00;;;;;;4937506;29;20430;-67
2021/05/09 04:14:28;;;;;;;29.77;15.07;;;282.00;1689.60;;;;;;4937434;29;20036;-67
2021/05/09 04:16:54;;;;;;;22.08;13.15;;;282.00;1689.60;;;;;;4937414;29;20085;-67
2021/05/09 04:19:20;;;;;;;29.40;15.88;;;282.00;1689.60;;;;;;4937135;29;20477;-67
2021/05/09 04:21:45;;;;;;;29.60;16.38;;;282.00;1689.60;;;;;;4937281;29;20042;-67
2021/05/09 04:24:11;;;;;;;29.77;15.80;;;282.00;1689.60;;;;;;4937281;29;20031;-67
2021/05/09 04:26:37;;;;;;;25.83;14.93;;;282.00;1689.60;;;;;;4937226;29;20525;-67
2021/05/09 04:29:03;;;;;;;27.95;16.25;;;282.00;1689.60;;;;;;4919986;29;20417;-67
2021/05/09 04:31:29;;;;;;;27.88;14.90;;;282.00;1689.60;;;;;;4919811;29;20032;-67
2021/05/09 04:33:54;;;;;;;25.88;14.52;;;282.10;1689.60;;;;;;4937001;29;20043;-68
2021/05/09 04:36:20;;;;;;;26.48;16.08;;;282.10;1689.60;;;;;;4936934;29;20062;-67
2021/05/09 04:38:46;;;;;;;26.70;14.75;;;282.10;1689.60;;;;;;4937393;29;20027;-68
2021/05/09 04:41:11;;;;;;;32.88;16.45;;;282.10;1689.60;;;;;;4937043;29;20122;-65
2021/05/09 04:43:38;;;;;;;28.27;13.98;;;282.10;1689.60;;;;;;4937003;29;20116;-66
2021/05/09 04:46:04;;;;;;;26.45;14.40;;;282.20;1689.60;;;;;;4936604;29;20379;-66
2021/05/09 04:48:30;;;;;;;26.08;15.52;;;282.30;1689.60;;;;;;4936723;29;20043;-66
2021/05/09 04:50:56;;;;;;;26.20;13.38;;;282.40;1689.60;;;;;;4936917;29;20027;-65
2021/05/09 04:53:22;;;;;;;27.90;14.65;;;282.50;1664.00;;;;;;4936912;29;20024;-65
2021/05/09 04:55:47;;;;;;;25.05;14.00;;;307.20;1689.60;;;;;;4936790;29;20036;-65
2021/05/09 04:58:13;;;;;;;28.63;14.15;;;307.20;1689.60;;;;;;4936770;29;20075;-65
2021/05/09 05:00:39;;;;;;;26.10;13.52;;;307.30;1664.00;;;;;;4936755;29;20031;-66
2021/05/09 05:03:05;;;;;;;27.83;14.23;;;307.30;1664.00;;;;;;4935802;29;20066;-65
2021/05/09 05:05:30;;;;;;;23.35;13.55;;;307.40;1638.40;;;;;;4937106;29;20087;-68
2021/05/09 05:07:56;;;;;;;23.65;13.02;;;307.40;1664.00;;;;;;4928202;29;20059;-68
2021/05/09 05:10:22;;;;;;;22.05;12.55;;;307.50;1664.00;;;;;;4917478;29;20479;-68
2021/05/09 05:12:47;;;;;;;24.15;13.27;;;307.50;1638.40;;;;;;4917480;29;20058;-68
2021/05/09 05:15:13;;;;;;;21.23;12.38;;;307.60;1664.00;;;;;;4917661;29;20103;-68
2021/05/09 05:17:39;;;;;;;22.98;12.20;;;307.60;1638.40;;;;;;4917492;29;20032;-68
2021/05/09 05:20:05;;;;;;;27.33;13.88;;;307.60;1638.40;;;;;;4917345;29;20388;-68
2021/05/09 05:22:31;;;;;;;23.35;13.00;;;307.60;1638.40;;;;;;4917548;29;20426;-68
2021/05/09 05:24:56;;;;;;;23.27;13.57;;;307.70;1612.80;;;;;;4917539;29;20024;-68
2021/05/09 05:27:22;;;;;;;23.60;13.70;;;307.80;1638.40;;;;;;4917463;29;20035;-68
2021/05/09 05:29:48;;;;;;;23.02;12.82;;;307.80;1612.80;;;;;;4917510;29;20375;-68
2021/05/09 05:32:13;;;;;;;27.45;14.25;;;307.80;1612.80;;;;;;4917378;29;20028;-68
2021/05/09 05:34:39;;;;;;;22.90;13.65;;;307.90;1612.80;;;;;;4917466;29;20429;-67
2021/05/09 05:37:05;;;;;;;24.35;14.57;;;308.10;1689.60;;;;;;4917568;29;20039;-68
2021/05/09 05:39:30;;;;;;;22.80;13.65;;;308.10;1664.00;;;;;;4917358;29;20031;-68
2021/05/09 05:41:58;;;;;;;26.55;14.27;;;332.80;1664.00;;;;;;4917365;29;20028;-68
2021/05/09 05:44:23;;;;;;;24.55;13.10;;;332.90;1664.00;;;;;;4917434;29;20044;-68
2021/05/09 05:46:49;;;;;;;21.88;13.50;;;332.90;1664.00;;;;;;4916209;29;20542;-68
2021/05/09 05:49:15;;;;;;;20.42;12.65;;;333.00;1664.00;;;;;;4916332;29;20379;-67
2021/05/09 05:51:41;;;;;;;22.95;12.80;;;333.10;1664.00;;;;;;4916322;29;20111;-68
2021/05/09 05:54:06;;;;;;;25.88;14.88;;;333.20;1664.00;;;;;;4916332;29;20033;-68
2021/05/09 05:56:32;;;;;;;20.45;14.05;;;333.30;1664.00;;;;;;4916388;29;20064;-68
2021/05/09 05:58:58;;;;;;;25.55;13.60;;;333.40;1638.40;;;;;;4916400;29;20035;-67
2021/05/09 06:01:23;;;;;;;27.92;13.68;;;333.50;1638.40;;;;;;4916086;29;20048;-69
2021/05/09 06:03:49;;;;;;;32.88;14.20;;;333.60;1612.80;;;;;;4916025;29;20036;-67
2021/05/09 06:06:15;;;;;;;39.53;13.48;;;333.70;1638.40;;;;;;4916379;29;20028;-67
2021/05/09 06:08:42;;;;;;;30.73;12.45;;;358.40;1587.20;;;;;;4916181;29;20107;-67
2021/05/09 06:11:07;;;;;;;26.13;12.07;;;358.60;1561.60;;;;;;4916441;29;20028;-67
2021/05/09 06:13:33;;;;;;;22.95;12.90;;;358.70;1561.60;;;;;;4917791;29;20398;-68
2021/05/09 06:15:59;;;;;;;23.63;13.13;;;358.80;1536.00;;;;;;4917545;29;20451;-69
2021/05/09 06:18:25;;;;;;;32.00;12.18;;;359.00;1536.00;;;;;;4919108;29;20418;-67
2021/05/09 06:20:51;;;;;;;23.85;12.38;;;359.10;1510.40;;;;;;4919083;29;20028;-67
2021/05/09 06:23:26;;;;;;;25.00;10.70;;;384.00;1484.80;;;;;;4902386;29;20137;-67
2021/05/09 06:25:52;;;;;;;17.80;9.48;;;384.20;1459.20;;;;;;4919430;29;20388;-67
2021/05/09 06:28:18;;;;;;;20.00;9.15;;;384.50;1459.20;;;;;;4919291;29;20029;-67
2021/05/09 06:30:46;;;;;;;18.27;9.25;;;384.80;1408.00;;;;;;4919302;29;20360;-67
2021/05/09 06:33:12;;;;;;;20.05;9.32;;;409.70;1382.40;;;;;;4919109;29;20030;-67
2021/05/09 06:35:39;;;;;;;30.63;9.30;;;409.90;1356.80;;;;;;4918258;29;20044;-67
2021/05/09 06:38:07;;;;;;;20.60;8.13;;;410.20;1356.80;;;;;;4918511;29;20498;-66
2021/05/09 06:40:34;;;;;;;18.95;8.20;;;410.50;1305.60;;;;;;4915342;29;20024;-65
2021/05/09 06:43:01;;;;;;;15.70;6.88;;;435.40;1305.60;;;;;;4916658;29;20021;-65
2021/05/09 06:45:28;;;;;;;11.38;5.80;;;435.70;1254.40;;;;;;4890352;29;824416;-66
2021/05/09 06:47:55;;;;;;;15.88;6.43;;;435.90;1177.60;;;;;;4919131;29;20470;-67
2021/05/09 06:50:21;;;;;;;15.10;6.03;;;460.80;1203.20;;;;;;4919663;29;20024;-65
2021/05/09 06:52:47;;;;;;;16.17;5.68;;;461.00;1177.60;;;;;;4901954;29;20038;-66
2021/05/09 06:55:14;;;;;;;12.80;6.18;;;461.20;1126.40;;;;;;4918583;29;20024;-65
2021/05/09 06:57:40;;;;;;;13.57;6.13;;;461.50;1126.40;;;;;;4918986;29;20032;-66
2021/05/09 07:00:08;;;;;;;19.27;6.22;;;461.60;1126.40;;;;;;4919056;29;20028;-68
2021/05/09 07:02:34;;;;;;;16.40;6.40;;;486.50;1126.40;;;;;;4919841;29;20043;-68
2021/05/09 07:05:00;;;;;;;9.73;5.43;;;486.70;1075.20;;;;;;4919680;29;20115;-68
2021/05/09 07:07:25;;;;;;;11.20;5.68;;;486.90;1024.00;;;;;;4919650;29;20546;-67
2021/05/09 07:09:51;;;;;;;10.00;5.22;;;487.10;1024.00;;;;;;4919771;29;20486;-68
2021/05/09 07:12:17;;;;;;;11.57;5.00;;;512.00;998.40;;;;;;4919573;29;20028;-68
2021/05/09 07:14:42;;;;;;;13.65;6.57;;;512.20;998.40;;;;;;4919545;29;20036;-67
2021/05/09 07:17:09;;;;;;;13.32;5.93;;;512.40;972.80;;;;;;4919400;29;20028;-68
2021/05/09 07:19:35;;;;;;;11.30;5.00;;;512.60;947.20;;;;;;4919485;29;20108;-67
2021/05/09 07:22:04;;;;;;;14.50;5.10;;;512.90;947.20;;;;;;4919402;29;20110;-68
2021/05/09 07:24:30;;;;;;;12.95;5.00;;;537.70;947.20;;;;;;4918615;29;20040;-68
2021/05/09 07:26:56;;;;;;;9.43;4.72;;;537.90;896.00;;;;;;4919461;29;20029;-68
2021/05/09 07:29:21;;;;;;;11.10;5.03;;;538.10;896.00;;;;;;4919327;29;20390;-68
2021/05/09 07:31:47;;;;;;;12.93;4.22;;;538.20;870.40;;;;;;4919083;29;20036;-67
2021/05/09 07:34:14;;;;;;;12.00;4.57;;;538.40;870.40;;;;;;4919036;29;20048;-68
2021/05/09 07:36:40;;;;;;;9.52;4.60;;;563.20;896.00;;;;;;4919098;29;20039;-67
2021/05/09 07:39:09;;;;;;;10.20;4.28;;;563.40;870.40;;;;;;4919234;29;20029;-68
2021/05/09 07:41:35;;;;;;;18.27;4.80;;;563.60;844.80;;;;;;4919138;29;20024;-67
2021/05/09 07:44:03;;;;;;;9.77;4.63;;;563.70;844.80;;;;;;4918635;29;20032;-68
2021/05/09 07:46:30;;;;;;;8.85;4.15;;;563.80;793.60;;;;;;4918939;29;20435;-68
2021/05/09 07:48:55;;;;;;;11.02;5.05;;;564.00;819.20;;;;;;4919078;29;20032;-67
2021/05/09 07:51:21;;;;;;;15.25;5.07;;;588.80;793.60;;;;;;4919053;29;20028;-67
2021/05/09 07:53:47;;;;;;;13.00;5.65;;;589.00;793.60;;;;;;4918915;29;20431;-67
2021/05/09 07:56:13;;;;;;;10.65;4.72;;;589.10;768.00;;;;;;4918670;29;20036;-67
2021/05/09 07:58:38;;;;;;;9.32;5.53;;;589.20;742.40;;;;;;4918841;29;20024;-68
2021/05/09 08:01:04;;;;;;;7.97;5.18;;;589.30;742.40;;;;;;4917143;29;20048;-68
2021/05/09 08:03:30;;;;;;;7.53;4.93;;;589.40;716.80;;;;;;4918111;29;20047;-68
2021/05/09 08:05:56;;;;;;;12.25;4.97;;;589.50;716.80;;;;;;4918555;29;20036;-68
2021/05/09 08:08:27;;;;;;;8.85;5.05;;;589.60;716.80;;;;;;4918464;29;20399;-68
2021/05/09 08:10:52;;;;;;;10.25;4.72;;;589.70;691.20;;;;;;4917402;29;20058;-68
2021/05/09 08:13:18;;;;;;;11.48;5.40;;;614.40;691.20;;;;;;4917095;29;20474;-67
2021/05/09 08:15:44;;;;;;;11.68;5.18;;;614.40;691.20;;;;;;4917711;29;20036;-68
2021/05/09 08:18:10;;;;;;;11.30;5.68;;;614.60;665.60;;;;;;4918467;29;20111;-67
2021/05/09 08:20:36;;;;;;;13.30;5.55;;;614.60;691.20;;;;;;4918112;29;20034;-67
2021/05/09 08:23:03;;;;;;;14.40;5.70;;;614.70;716.80;;;;;;4918228;29;20044;-68
2021/05/09 08:25:29;;;;;;;30.70;8.15;;;614.80;665.60;;;;;;4918491;29;20095;-67
2021/05/09 08:27:55;;;;;;;19.95;5.60;;;614.90;665.60;;;;;;4918350;29;20031;-66
2021/05/09 08:30:23;;;;;;;10.55;4.70;;;615.00;665.60;;;;;;4918294;29;20028;-67
2021/05/09 08:32:50;;;;;;;11.40;5.38;;;615.00;640.00;;;;;;4918227;29;20060;-67
2021/05/09 08:35:16;;;;;;;9.05;4.88;;;615.00;640.00;;;;;;4917851;29;20478;-66
2021/05/09 08:37:43;;;;;;;7.78;4.55;;;615.10;640.00;;;;;;4918102;29;20107;-67
2021/05/09 08:40:13;;;;;;;10.98;4.85;;;615.20;614.40;;;;;;4918118;29;20526;-66
2021/05/09 08:42:39;;;;;;;15.05;5.35;;;615.30;614.40;;;;;;4917960;29;20024;-66
2021/05/09 08:45:05;;;;;;;7.97;3.85;;;640.00;614.40;;;;;;4917869;29;20053;-66
2021/05/09 08:47:40;;;;;;;10.70;4.78;;;640.00;614.40;;;;;;4917784;29;20032;-66
2021/05/09 08:50:11;;;;;;;11.20;4.85;;;640.10;614.40;;;;;;4917876;29;20480;-66
2021/05/09 08:52:39;;;;;;;10.15;4.70;;;640.20;640.00;;;;;;4917857;29;20096;-66
2021/05/09 08:55:07;;;;;;;17.65;4.85;;;640.30;640.00;;;;;;4917918;29;20107;-67
2021/05/09 08:57:33;;;;;;;9.18;4.85;;;640.30;614.40;;;;;;4917827;29;20032;-65
2021/05/09 08:59:59;;;;;;;12.65;6.90;;;640.40;588.80;;;;;;4917502;29;20028;-65
2021/05/09 09:02:26;;;;;;;13.95;6.47;;;640.50;588.80;;;;;;4917541;29;20039;-64
2021/05/09 09:04:56;;;;;;;14.13;7.05;;;640.60;588.80;;;;;;4917498;29;20025;-66
2021/05/09 09:07:23;;;;;;;11.45;6.70;;;640.60;588.80;;;;;;4917496;29;20087;-65
2021/05/09 09:09:51;;;;;;;13.23;7.05;;;640.70;614.40;;;;;;4917650;29;20386;-69
2021/05/09 09:12:18;;;;;;;16.73;7.18;;;640.70;640.00;;;;;;4917702;29;20024;-66
2021/05/09 09:14:58;;;;;;;12.23;6.68;;;640.80;614.40;;;;;;4917499;29;20032;-67
2021/05/09 09:17:25;;;;;;;12.32;6.07;;;640.80;588.80;;;;;;4917722;29;20031;-71
2021/05/09 09:20:17;;;;;;;15.50;8.48;;;640.80;588.80;;;;;;4917587;29;20439;-65
2021/05/09 09:23:00;;;;;;;14.45;6.78;;;640.80;640.00;;;;;;4917666;29;20020;-65
2021/05/09 09:25:32;;;;;;;11.35;6.05;;;640.80;588.80;;;;;;4917992;29;20028;-65
2021/05/09 09:28:00;;;;;;;12.35;4.93;;;640.80;588.80;;;;;;4917317;29;20415;-63
2021/05/09 09:30:28;;;;;;;11.02;7.03;;;640.80;588.80;;;;;;4918267;29;20028;-65
2021/05/09 09:33:14;;;;;;;7.85;5.65;;;640.80;614.40;;;;;;4928900;29;20062;-67
2021/05/09 09:35:44;;;;;;;9.00;4.40;;;640.90;614.40;;;;;;4919109;29;20036;-66
2021/05/09 09:38:29;;;;;;;5.07;2.90;;;665.70;614.40;;;;;;4936368;29;20031;-66
2021/05/09 09:41:09;;;;;;;12.43;9.00;;;665.80;614.40;;;;;;4936303;29;20028;-66
2021/05/09 09:43:35;;;;;;;10.27;6.53;;;665.80;588.80;;;;;;4936383;29;20040;-65
2021/05/09 09:46:01;;;;;;;12.40;6.72;;;666.10;588.80;;;;;;4936052;29;20054;-67
2021/05/09 09:48:41;;;;;;;6.55;4.47;;;666.10;563.20;;;;;;4937834;29;20051;-68
2021/05/09 09:51:08;;;;;;;3.78;2.72;;;666.30;588.80;;;;;;4940335;29;20079;-66
2021/05/09 09:53:39;;;;;;;7.03;2.55;;;666.40;563.20;;;;;;4939994;29;20024;-66
2021/05/09 09:56:09;;;;;;;6.28;2.00;;;666.40;537.60;;;;;;4939998;29;20449;-65
2021/05/09 09:58:52;;;;;;;5.40;2.40;;;666.40;537.60;;;;;;4940034;29;20023;-66
2021/05/09 10:01:37;;;;;;;4.22;2.40;;;666.50;512.00;;;;;;4939782;29;20034;-66
2021/05/09 10:04:08;;;;;;;4.25;2.28;;;691.20;537.60;;;;;;4939913;29;20365;-66
2021/05/09 10:06:36;;;;;;;20.88;5.07;;;691.20;537.60;;;;;;4939625;29;20028;-66
2021/05/09 10:09:03;;;;;;;12.48;3.97;;;691.20;537.60;;;;;;4939824;29;20157;-67
2021/05/09 10:11:30;;;;;;;8.75;4.28;;;691.20;512.00;;;;;;4939813;29;20027;-66
2021/05/09 10:13:57;;;;;;;6.10;2.75;;;691.30;512.00;;;;;;4939690;29;20026;-66
2021/05/09 10:16:26;;;;;;;5.43;3.70;;;691.30;512.00;;;;;;4939672;29;20047;-66
2021/05/09 10:18:58;;;;;;;3.55;2.40;;;691.50;512.00;;;;;;4939667;29;20035;-65
2021/05/09 10:21:32;;;;;;;4.97;2.65;;;691.50;486.40;;;;;;4939487;29;20031;-67
2021/05/09 10:24:17;;;;;;;3.70;2.03;;;691.50;486.40;;;;;;4939632;29;20374;-66
2021/05/09 10:26:53;;;;;;;8.43;2.30;;;691.60;512.00;;;;;;4939517;29;20201;-66
2021/05/09 10:29:45;;;;;;;4.07;1.83;;;691.70;486.40;;;;;;4939344;29;20028;-66
2021/05/09 10:32:22;;;;;;;4.80;1.95;;;691.70;460.80;;;;;;4939365;29;20033;-65
2021/05/09 10:34:54;;;;;;;15.15;3.20;;;691.80;435.20;;;;;;4939339;29;20407;-66
2021/05/09 10:37:48;;;;;;;20.75;3.60;;;691.80;460.80;;;;;;4924760;29;20039;-66
2021/05/09 10:40:20;;;;;;;7.00;2.50;;;691.90;460.80;;;;;;4916554;29;20159;-64
2021/05/09 10:43:09;;;;;;;2.05;1.83;;;691.90;435.20;;;;;;4919925;29;20028;-66
2021/05/09 10:45:35;;;;;;;28.42;6.70;;;691.90;460.80;;;;;;4920117;29;20040;-64
2021/05/09 10:48:16;;;;;;;45.67;6.82;;;691.90;486.40;;;;;;4919448;29;20036;-65
2021/05/09 10:50:41;;;;;;;73.43;9.68;;;692.00;512.00;;;;;;4918540;29;20159;-69
2021/05/09 10:53:07;;;;;;;244.57;23.25;;;692.00;486.40;;;;;;4919600;29;20056;-77
2021/05/09 10:55:36;;;;;;;153.25;15.60;;;716.80;563.20;;;;;;4918986;29;20478;-74
2021/05/09 10:58:03;;;;;;;103.40;5.32;;;692.10;563.20;;;;;;4919507;29;20035;-74
2021/05/09 11:00:49;;;;;;;110.35;7.38;;;716.80;512.00;;;;;;4918433;29;20038;-72
